sensor_id;sensor_type;location;lat;lon;timestamp;pressure;altitude;pressure_sealevel;temperature;humidity
70841;BME280;58465;51.534;9.934;2023-03-04T00:00:48;100638.06;;;4.73;66.81
70841;BME280;58465;51.534;9.934;2023-03-04T00:03:14;100638.94;;;4.71;66.67
70841;BME280;58465;51.534;9.934;2023-03-04T00:05:41;100640.69;;;4.70;66.76
70841;BME280;58465;51.534;9.934;2023-03-04T00:08:07;100632.75;;;4.70;66.93
70841;BME280;58465;51.534;9.934;2023-03-04T00:10:32;100633.66;;;4.74;66.83
70841;BME280;58465;51.534;9.934;2023-03-04T00:12:57;100632.75;;;4.73;66.63
70841;BME280;58465;51.534;9.934;2023-03-04T00:15:23;100625.69;;;4.72;66.58
70841;BME280;58465;51.534;9.934;2023-03-04T00:17:48;100631.88;;;4.73;66.96
70841;BME280;58465;51.534;9.934;2023-03-04T00:20:13;100630.09;;;4.72;66.75
70841;BME280;58465;51.534;9.934;2023-03-04T00:22:39;100636.31;;;4.75;66.85
70841;BME280;58465;51.534;9.934;2023-03-04T00:25:04;100631.06;;;4.78;66.63
70841;BME280;58465;51.534;9.934;2023-03-04T00:27:29;100625.75;;;4.75;66.42
70841;BME280;58465;51.534;9.934;2023-03-04T00:29:55;100631.97;;;4.80;66.31
70841;BME280;58465;51.534;9.934;2023-03-04T00:32:21;100624.03;;;4.82;66.13
70841;BME280;58465;51.534;9.934;2023-03-04T00:34:46;100629.28;;;4.76;66.28
70841;BME280;58465;51.534;9.934;2023-03-04T00:37:11;100622.19;;;4.75;66.50
70841;BME280;58465;51.534;9.934;2023-03-04T00:39:37;100619.56;;;4.75;66.51
70841;BME280;58465;51.534;9.934;2023-03-04T00:42:02;100633.69;;;4.77;66.26
70841;BME280;58465;51.534;9.934;2023-03-04T00:44:27;100621.34;;;4.76;66.18
70841;BME280;58465;51.534;9.934;2023-03-04T00:46:52;100622.25;;;4.81;66.03
70841;BME280;58465;51.534;9.934;2023-03-04T00:49:18;100615.22;;;4.80;65.72
70841;BME280;58465;51.534;9.934;2023-03-04T00:51:43;100629.41;;;4.88;65.90
70841;BME280;58465;51.534;9.934;2023-03-04T00:54:08;100627.66;;;4.90;65.62
70841;BME280;58465;51.534;9.934;2023-03-04T00:56:33;100627.66;;;4.89;65.69
70841;BME280;58465;51.534;9.934;2023-03-04T00:58:59;100624.97;;;4.87;65.45
70841;BME280;58465;51.534;9.934;2023-03-04T01:01:24;100619.69;;;4.87;65.56
70841;BME280;58465;51.534;9.934;2023-03-04T01:03:49;100624.97;;;4.87;65.72
70841;BME280;58465;51.534;9.934;2023-03-04T01:06:14;100620.56;;;4.88;65.50
70841;BME280;58465;51.534;9.934;2023-03-04T01:08:40;100621.53;;;4.96;65.32
70841;BME280;58465;51.534;9.934;2023-03-04T01:11:05;100624.13;;;4.91;65.09
70841;BME280;58465;51.534;9.934;2023-03-04T01:13:31;100619.72;;;4.90;65.14
70841;BME280;58465;51.534;9.934;2023-03-04T01:15:57;100613.56;;;4.94;65.17
70841;BME280;58465;51.534;9.934;2023-03-04T01:18:22;100610.06;;;4.95;65.17
70841;BME280;58465;51.534;9.934;2023-03-04T01:20:48;100604.69;;;4.91;65.39
70841;BME280;58465;51.534;9.934;2023-03-04T01:23:13;100603.84;;;4.93;65.04
70841;BME280;58465;51.534;9.934;2023-03-04T01:25:38;100605.59;;;4.88;65.21
70841;BME280;58465;51.534;9.934;2023-03-04T01:28:03;100601.97;;;4.78;65.35
70841;BME280;58465;51.534;9.934;2023-03-04T01:30:29;100601.13;;;4.84;65.26
70841;BME280;58465;51.534;9.934;2023-03-04T01:32:54;100599.41;;;4.89;65.09
70841;BME280;58465;51.534;9.934;2023-03-04T01:35:19;100598.47;;;4.84;65.42
70841;BME280;58465;51.534;9.934;2023-03-04T01:37:44;100581.69;;;4.83;65.32
70841;BME280;58465;51.534;9.934;2023-03-04T01:40:10;100586.19;;;4.89;65.02
70841;BME280;58465;51.534;9.934;2023-03-04T01:42:36;100582.63;;;4.87;65.05
70841;BME280;58465;51.534;9.934;2023-03-04T01:45:03;100578.28;;;4.94;65.04
70841;BME280;58465;51.534;9.934;2023-03-04T01:47:30;100578.34;;;5.00;64.70
70841;BME280;58465;51.534;9.934;2023-03-04T01:49:57;100573.03;;;5.03;64.55
70841;BME280;58465;51.534;9.934;2023-03-04T01:52:23;100572.16;;;5.02;64.61
70841;BME280;58465;51.534;9.934;2023-03-04T01:54:48;100559.78;;;5.01;64.65
70841;BME280;58465;51.534;9.934;2023-03-04T01:57:19;100560.69;;;5.03;64.32
70841;BME280;58465;51.534;9.934;2023-03-04T01:59:45;100554.50;;;5.01;64.40
70841;BME280;58465;51.534;9.934;2023-03-04T02:02:11;100563.31;;;5.02;64.49
70841;BME280;58465;51.534;9.934;2023-03-04T02:04:38;100552.69;;;4.94;64.62
70841;BME280;58465;51.534;9.934;2023-03-04T02:07:04;100545.59;;;4.89;64.73
70841;BME280;58465;51.534;9.934;2023-03-04T02:09:31;100549.94;;;4.83;64.96
70841;BME280;58465;51.534;9.934;2023-03-04T02:11:57;100542.97;;;4.93;64.49
70841;BME280;58465;51.534;9.934;2023-03-04T02:14:23;100542.09;;;4.94;64.46
70841;BME280;58465;51.534;9.934;2023-03-04T02:16:49;100544.75;;;4.96;64.50
70841;BME280;58465;51.534;9.934;2023-03-04T02:19:22;100545.56;;;4.87;64.69
70841;BME280;58465;51.534;9.934;2023-03-04T02:21:50;100540.31;;;4.93;64.70
70841;BME280;58465;51.534;9.934;2023-03-04T02:24:27;100536.84;;;4.97;64.55
70841;BME280;58465;51.534;9.934;2023-03-04T02:26:54;100537.66;;;4.92;64.77
70841;BME280;58465;51.534;9.934;2023-03-04T02:29:19;100530.66;;;4.97;64.66
70841;BME280;58465;51.534;9.934;2023-03-04T02:31:47;100520.94;;;4.97;64.49
70841;BME280;58465;51.534;9.934;2023-03-04T02:34:16;100528.00;;;4.95;64.50
70841;BME280;58465;51.534;9.934;2023-03-04T02:36:44;100527.06;;;4.92;64.58
70841;BME280;58465;51.534;9.934;2023-03-04T02:39:34;100524.50;;;5.01;64.53
70841;BME280;58465;51.534;9.934;2023-03-04T02:42:01;100523.63;;;5.02;64.34
70841;BME280;58465;51.534;9.934;2023-03-04T02:44:29;100527.22;;;5.07;64.15
70841;BME280;58465;51.534;9.934;2023-03-04T02:46:55;100524.56;;;5.07;64.31
70841;BME280;58465;51.534;9.934;2023-03-04T02:49:22;100520.16;;;5.09;64.37
70841;BME280;58465;51.534;9.934;2023-03-04T02:51:51;100520.16;;;5.09;64.19
70841;BME280;58465;51.534;9.934;2023-03-04T02:54:21;100513.97;;;5.10;64.06
70841;BME280;58465;51.534;9.934;2023-03-04T02:56:51;100513.97;;;5.10;64.15
70841;BME280;58465;51.534;9.934;2023-03-04T02:59:18;100515.75;;;5.08;64.28
70841;BME280;58465;51.534;9.934;2023-03-04T03:01:44;100514.84;;;5.07;64.24
70841;BME280;58465;51.534;9.934;2023-03-04T03:04:09;100517.50;;;5.07;64.40
70841;BME280;58465;51.534;9.934;2023-03-04T03:06:35;100513.97;;;5.08;64.26
70841;BME280;58465;51.534;9.934;2023-03-04T03:09:00;100512.19;;;5.10;64.44
70841;BME280;58465;51.534;9.934;2023-03-04T03:11:25;100509.56;;;5.10;64.14
70841;BME280;58465;51.534;9.934;2023-03-04T03:13:51;100510.44;;;5.06;64.62
70841;BME280;58465;51.534;9.934;2023-03-04T03:16:16;100513.06;;;5.06;64.67
70841;BME280;58465;51.534;9.934;2023-03-04T03:18:41;100514.84;;;5.07;64.35
70841;BME280;58465;51.534;9.934;2023-03-04T03:21:06;100513.00;;;4.97;64.55
70841;BME280;58465;51.534;9.934;2023-03-04T03:23:33;100511.28;;;5.04;64.45
70841;BME280;58465;51.534;9.934;2023-03-04T03:25:59;100512.25;;;5.13;64.19
70841;BME280;58465;51.534;9.934;2023-03-04T03:28:24;100510.50;;;5.15;64.06
70841;BME280;58465;51.534;9.934;2023-03-04T03:30:49;100508.69;;;5.13;64.13
70841;BME280;58465;51.534;9.934;2023-03-04T03:33:15;100505.16;;;5.09;64.35
70841;BME280;58465;51.534;9.934;2023-03-04T03:35:40;100499.00;;;5.15;64.08
70841;BME280;58465;51.534;9.934;2023-03-04T03:38:05;100507.84;;;5.14;64.07
70841;BME280;58465;51.534;9.934;2023-03-04T03:40:31;100499.88;;;5.14;64.06
70841;BME280;58465;51.534;9.934;2023-03-04T03:42:56;100501.66;;;5.13;64.03
70841;BME280;58465;51.534;9.934;2023-03-04T03:45:21;100499.00;;;5.13;64.01
70841;BME280;58465;51.534;9.934;2023-03-04T03:47:46;100496.34;;;5.12;64.06
70841;BME280;58465;51.534;9.934;2023-03-04T03:50:12;100502.53;;;5.14;64.08
70841;BME280;58465;51.534;9.934;2023-03-04T03:52:37;100499.88;;;5.12;64.09
70841;BME280;58465;51.534;9.934;2023-03-04T03:55:02;100494.53;;;5.06;64.20
70841;BME280;58465;51.534;9.934;2023-03-04T03:57:28;100502.50;;;5.06;64.21
70841;BME280;58465;51.534;9.934;2023-03-04T03:59:54;100489.22;;;5.03;64.20
70841;BME280;58465;51.534;9.934;2023-03-04T04:02:20;100503.38;;;5.11;64.20
70841;BME280;58465;51.534;9.934;2023-03-04T04:04:46;100488.41;;;5.13;64.02
70841;BME280;58465;51.534;9.934;2023-03-04T04:07:11;100495.53;;;5.19;63.82
70841;BME280;58465;51.534;9.934;2023-03-04T04:09:36;100489.34;;;5.18;63.96
70841;BME280;58465;51.534;9.934;2023-03-04T04:12:04;100484.03;;;5.18;63.91
70841;BME280;58465;51.534;9.934;2023-03-04T04:14:29;100484.94;;;5.19;64.08
70841;BME280;58465;51.534;9.934;2023-03-04T04:16:55;100477.81;;;5.15;64.20
70841;BME280;58465;51.534;9.934;2023-03-04T04:19:20;100476.03;;;5.11;64.19
70841;BME280;58465;51.534;9.934;2023-03-04T04:21:46;100472.50;;;5.12;64.12
70841;BME280;58465;51.534;9.934;2023-03-04T04:24:12;100468.13;;;5.14;64.18
70841;BME280;58465;51.534;9.934;2023-03-04T04:26:37;100469.94;;;5.22;63.87
70841;BME280;58465;51.534;9.934;2023-03-04T04:29:02;100463.75;;;5.22;63.90
70841;BME280;58465;51.534;9.934;2023-03-04T04:31:28;100467.31;;;5.26;63.84
70841;BME280;58465;51.534;9.934;2023-03-04T04:33:53;100472.53;;;5.19;64.19
70841;BME280;58465;51.534;9.934;2023-03-04T04:36:18;100466.38;;;5.22;64.04
70841;BME280;58465;51.534;9.934;2023-03-04T04:38:44;100469.94;;;5.22;64.06
70841;BME280;58465;51.534;9.934;2023-03-04T04:41:23;100461.97;;;5.21;64.21
70841;BME280;58465;51.534;9.934;2023-03-04T04:43:49;100462.84;;;5.21;64.26
70841;BME280;58465;51.534;9.934;2023-03-04T04:46:15;100462.88;;;5.25;63.93
70841;BME280;58465;51.534;9.934;2023-03-04T04:48:41;100459.38;;;5.27;64.07
70841;BME280;58465;51.534;9.934;2023-03-04T04:51:07;100458.44;;;5.22;64.08
70841;BME280;58465;51.534;9.934;2023-03-04T04:53:32;100465.50;;;5.23;63.97
70841;BME280;58465;51.534;9.934;2023-03-04T04:55:57;100462.91;;;5.31;63.76
70841;BME280;58465;51.534;9.934;2023-03-04T04:58:22;100467.34;;;5.33;63.73
70841;BME280;58465;51.534;9.934;2023-03-04T05:00:48;100470.88;;;5.35;63.67
70841;BME280;58465;51.534;9.934;2023-03-04T05:03:13;100466.41;;;5.30;63.68
70841;BME280;58465;51.534;9.934;2023-03-04T05:05:38;100468.19;;;5.31;64.19
70841;BME280;58465;51.534;9.934;2023-03-04T05:08:04;100469.09;;;5.33;64.14
70841;BME280;58465;51.534;9.934;2023-03-04T05:10:29;100464.72;;;5.38;64.13
70841;BME280;58465;51.534;9.934;2023-03-04T05:12:54;100461.13;;;5.31;64.08
70841;BME280;58465;51.534;9.934;2023-03-04T05:15:20;100460.25;;;5.26;64.21
70841;BME280;58465;51.534;9.934;2023-03-04T05:17:45;100456.78;;;5.36;64.16
70841;BME280;58465;51.534;9.934;2023-03-04T05:20:11;100470.94;;;5.44;63.61
70841;BME280;58465;51.534;9.934;2023-03-04T05:22:36;100464.75;;;5.45;63.66
70841;BME280;58465;51.534;9.934;2023-03-04T05:25:02;100460.38;;;5.47;63.91
70841;BME280;58465;51.534;9.934;2023-03-04T05:27:27;100457.72;;;5.47;63.65
70841;BME280;58465;51.534;9.934;2023-03-04T05:29:52;100468.25;;;5.37;63.88
70841;BME280;58465;51.534;9.934;2023-03-04T05:32:19;100463.00;;;5.46;63.59
70841;BME280;58465;51.534;9.934;2023-03-04T05:34:45;100459.44;;;5.38;63.86
70841;BME280;58465;51.534;9.934;2023-03-04T05:37:10;100455.91;;;5.43;63.80
70841;BME280;58465;51.534;9.934;2023-03-04T05:39:35;100457.69;;;5.43;63.57
70841;BME280;58465;51.534;9.934;2023-03-04T05:42:00;100458.53;;;5.39;63.90
70841;BME280;58465;51.534;9.934;2023-03-04T05:44:26;100460.31;;;5.43;63.85
70841;BME280;58465;51.534;9.934;2023-03-04T05:46:51;100456.81;;;5.44;63.99
70841;BME280;58465;51.534;9.934;2023-03-04T05:49:16;100457.69;;;5.44;63.90
70841;BME280;58465;51.534;9.934;2023-03-04T05:51:41;100460.31;;;5.43;64.04
70841;BME280;58465;51.534;9.934;2023-03-04T05:54:07;100458.56;;;5.49;64.39
70841;BME280;58465;51.534;9.934;2023-03-04T05:56:32;100463.94;;;5.55;64.00
70841;BME280;58465;51.534;9.934;2023-03-04T05:58:58;100460.38;;;5.55;63.99
70841;BME280;58465;51.534;9.934;2023-03-04T06:01:24;100455.06;;;5.58;63.81
70841;BME280;58465;51.534;9.934;2023-03-04T06:03:49;100458.63;;;5.55;63.72
70841;BME280;58465;51.534;9.934;2023-03-04T06:06:14;100460.38;;;5.53;64.17
70841;BME280;58465;51.534;9.934;2023-03-04T06:08:40;100461.22;;;5.45;64.38
70841;BME280;58465;51.534;9.934;2023-03-04T06:11:05;100460.38;;;5.53;64.24
70841;BME280;58465;51.534;9.934;2023-03-04T06:13:30;100470.03;;;5.44;64.46
70841;BME280;58465;51.534;9.934;2023-03-04T06:15:57;100465.66;;;5.46;64.54
70841;BME280;58465;51.534;9.934;2023-03-04T06:18:23;100469.19;;;5.46;64.39
70841;BME280;58465;51.534;9.934;2023-03-04T06:20:49;100468.31;;;5.47;64.25
70841;BME280;58465;51.534;9.934;2023-03-04T06:23:15;100464.75;;;5.44;64.74
70841;BME280;58465;51.534;9.934;2023-03-04T06:25:40;100464.81;;;5.54;64.18
70841;BME280;58465;51.534;9.934;2023-03-04T06:28:05;100467.44;;;5.57;64.19
70841;BME280;58465;51.534;9.934;2023-03-04T06:30:30;100477.19;;;5.63;64.38
70841;BME280;58465;51.534;9.934;2023-03-04T06:32:56;100471.00;;;5.63;63.99
70841;BME280;58465;51.534;9.934;2023-03-04T06:35:21;100478.97;;;5.63;64.18
70841;BME280;58465;51.534;9.934;2023-03-04T06:37:46;100479.00;;;5.70;64.01
70841;BME280;58465;51.534;9.934;2023-03-04T06:40:12;100471.03;;;5.69;63.85
70841;BME280;58465;51.534;9.934;2023-03-04T06:42:38;100474.63;;;5.75;63.86
70841;BME280;58465;51.534;9.934;2023-03-04T06:45:05;100477.22;;;5.66;64.11
70841;BME280;58465;51.534;9.934;2023-03-04T06:47:30;100477.22;;;5.69;64.02
70841;BME280;58465;51.534;9.934;2023-03-04T06:49:55;100478.09;;;5.68;64.28
70841;BME280;58465;51.534;9.934;2023-03-04T06:52:21;100486.03;;;5.68;64.60
70841;BME280;58465;51.534;9.934;2023-03-04T06:54:46;100484.25;;;5.63;64.43
70841;BME280;58465;51.534;9.934;2023-03-04T06:57:11;100486.97;;;5.78;64.45
70841;BME280;58465;51.534;9.934;2023-03-04T06:59:37;100484.34;;;5.76;64.06
70841;BME280;58465;51.534;9.934;2023-03-04T07:02:03;100465.75;;;5.70;64.18
70841;BME280;58465;51.534;9.934;2023-03-04T07:04:28;100478.16;;;5.83;64.13
70841;BME280;58465;51.534;9.934;2023-03-04T07:06:53;100482.56;;;5.81;64.15
70841;BME280;58465;51.534;9.934;2023-03-04T07:09:18;100476.47;;;5.97;63.68
70841;BME280;58465;51.534;9.934;2023-03-04T07:11:44;100481.78;;;6.01;63.83
70841;BME280;58465;51.534;9.934;2023-03-04T07:14:09;100478.25;;;6.02;63.77
70841;BME280;58465;51.534;9.934;2023-03-04T07:16:35;100484.47;;;6.10;64.11
70841;BME280;58465;51.534;9.934;2023-03-04T07:19:00;100487.13;;;6.16;63.86
70841;BME280;58465;51.534;9.934;2023-03-04T07:21:26;100470.31;;;6.17;63.74
70841;BME280;58465;51.534;9.934;2023-03-04T07:23:51;100477.41;;;6.13;63.78
70841;BME280;58465;51.534;9.934;2023-03-04T07:26:16;100476.50;;;6.11;63.70
70841;BME280;58465;51.534;9.934;2023-03-04T07:28:42;100479.19;;;6.13;63.85
70841;BME280;58465;51.534;9.934;2023-03-04T07:31:27;100474.75;;;6.25;63.32
70841;BME280;58465;51.534;9.934;2023-03-04T07:34:06;100475.69;;;6.43;63.04
70841;BME280;58465;51.534;9.934;2023-03-04T07:36:34;100477.41;;;6.27;63.34
70841;BME280;58465;51.534;9.934;2023-03-04T07:39:01;100473.88;;;6.19;63.77
70841;BME280;58465;51.534;9.934;2023-03-04T07:41:27;100480.97;;;6.21;63.57
70841;BME280;58465;51.534;9.934;2023-03-04T07:43:55;100477.41;;;6.13;63.93
70841;BME280;58465;51.534;9.934;2023-03-04T07:46:20;100480.94;;;6.12;64.12
70841;BME280;58465;51.534;9.934;2023-03-04T07:48:45;100471.25;;;6.29;63.44
70841;BME280;58465;51.534;9.934;2023-03-04T07:51:16;100473.88;;;6.22;63.57
70841;BME280;58465;51.534;9.934;2023-03-04T07:53:43;100469.47;;;6.28;63.28
70841;BME280;58465;51.534;9.934;2023-03-04T07:56:14;100468.63;;;6.43;63.39
70841;BME280;58465;51.534;9.934;2023-03-04T07:58:40;100472.16;;;6.73;62.37
70841;BME280;58465;51.534;9.934;2023-03-04T08:01:10;100470.38;;;6.78;62.40
70841;BME280;58465;51.534;9.934;2023-03-04T08:03:36;100472.13;;;6.63;63.07
70841;BME280;58465;51.534;9.934;2023-03-04T08:06:04;100466.84;;;6.85;62.82
70841;BME280;58465;51.534;9.934;2023-03-04T08:08:29;100475.69;;;6.99;62.38
70841;BME280;58465;51.534;9.934;2023-03-04T08:10:54;100466.84;;;6.85;62.37
70841;BME280;58465;51.534;9.934;2023-03-04T08:13:20;100468.63;;;6.80;62.78
70841;BME280;58465;51.534;9.934;2023-03-04T08:15:45;100475.69;;;6.75;63.18
70841;BME280;58465;51.534;9.934;2023-03-04T08:18:11;100465.97;;;6.80;63.31
70841;BME280;58465;51.534;9.934;2023-03-04T08:20:36;100464.19;;;6.88;63.26
70841;BME280;58465;51.534;9.934;2023-03-04T08:23:05;100465.91;;;7.02;62.71
70841;BME280;58465;51.534;9.934;2023-03-04T08:25:30;100460.63;;;7.08;62.51
70841;BME280;58465;51.534;9.934;2023-03-04T08:27:55;100455.25;;;7.27;62.28
70841;BME280;58465;51.534;9.934;2023-03-04T08:30:20;100457.84;;;7.50;61.40
70841;BME280;58465;51.534;9.934;2023-03-04T08:32:46;100455.16;;;7.54;60.96
70841;BME280;58465;51.534;9.934;2023-03-04T08:35:11;100456.94;;;7.55;60.78
70841;BME280;58465;51.534;9.934;2023-03-04T08:37:37;100460.41;;;7.72;60.47
70841;BME280;58465;51.534;9.934;2023-03-04T08:40:02;100461.25;;;7.79;60.04
70841;BME280;58465;51.534;9.934;2023-03-04T08:42:27;100463.06;;;7.78;60.15
70841;BME280;58465;51.534;9.934;2023-03-04T08:44:53;100462.25;;;7.51;60.97
70841;BME280;58465;51.534;9.934;2023-03-04T08:47:18;100459.59;;;7.51;60.85
70841;BME280;58465;51.534;9.934;2023-03-04T08:49:43;100459.63;;;7.48;61.08
70841;BME280;58465;51.534;9.934;2023-03-04T08:52:08;100465.84;;;7.40;61.53
70841;BME280;58465;51.534;9.934;2023-03-04T08:54:34;100467.63;;;7.31;62.09
70841;BME280;58465;51.534;9.934;2023-03-04T08:56:59;100465.03;;;7.17;62.59
70841;BME280;58465;51.534;9.934;2023-03-04T08:59:24;100454.38;;;7.23;62.49
70841;BME280;58465;51.534;9.934;2023-03-04T09:01:49;100456.16;;;7.12;63.04
70841;BME280;58465;51.534;9.934;2023-03-04T09:04:15;100461.47;;;7.23;62.54
70841;BME280;58465;51.534;9.934;2023-03-04T09:06:40;100452.63;;;7.13;63.17
70841;BME280;58465;51.534;9.934;2023-03-04T09:09:05;100459.66;;;7.31;62.75
70841;BME280;58465;51.534;9.934;2023-03-04T09:11:31;100459.66;;;7.38;62.81
70841;BME280;58465;51.534;9.934;2023-03-04T09:13:56;100458.81;;;7.27;62.84
70841;BME280;58465;51.534;9.934;2023-03-04T09:16:21;100462.38;;;7.19;63.35
70841;BME280;58465;51.534;9.934;2023-03-04T09:18:47;100455.25;;;7.28;63.19
70841;BME280;58465;51.534;9.934;2023-03-04T09:21:12;100462.34;;;7.26;63.46
70841;BME280;58465;51.534;9.934;2023-03-04T09:23:38;100463.28;;;7.07;64.07
70841;BME280;58465;51.534;9.934;2023-03-04T09:26:24;100472.13;;;7.09;64.46
70841;BME280;58465;51.534;9.934;2023-03-04T09:28:58;100460.56;;;7.22;63.82
70841;BME280;58465;51.534;9.934;2023-03-04T09:31:25;100460.53;;;7.34;64.09
70841;BME280;58465;51.534;9.934;2023-03-04T09:33:51;100460.53;;;7.47;63.94
70841;BME280;58465;51.534;9.934;2023-03-04T09:36:17;100461.25;;;7.83;62.91
70841;BME280;58465;51.534;9.934;2023-03-04T09:38:43;100462.13;;;7.81;62.82
70841;BME280;58465;51.534;9.934;2023-03-04T09:41:14;100453.16;;;8.06;62.12
70841;BME280;58465;51.534;9.934;2023-03-04T09:43:41;100446.06;;;8.04;62.42
70841;BME280;58465;51.534;9.934;2023-03-04T09:46:10;100442.53;;;8.02;62.31
70841;BME280;58465;51.534;9.934;2023-03-04T09:48:50;100446.03;;;8.10;62.11
70841;BME280;58465;51.534;9.934;2023-03-04T09:56:12;100445.91;;;8.33;61.28
70841;BME280;58465;51.534;9.934;2023-03-04T09:58:48;100440.53;;;8.40;61.02
70841;BME280;58465;51.534;9.934;2023-03-04T10:01:24;100443.28;;;8.20;61.59
70841;BME280;58465;51.534;9.934;2023-03-04T10:03:57;100440.69;;;8.16;62.16
70841;BME280;58465;51.534;9.934;2023-03-04T10:06:23;100436.25;;;8.10;62.30
70841;BME280;58465;51.534;9.934;2023-03-04T10:08:56;100445.13;;;8.14;62.62
70841;BME280;58465;51.534;9.934;2023-03-04T10:11:27;100439.75;;;8.18;62.11
70841;BME280;58465;51.534;9.934;2023-03-04T10:14:14;100446.00;;;8.16;62.66
70841;BME280;58465;51.534;9.934;2023-03-04T10:16:45;100438.84;;;8.23;62.54
70841;BME280;58465;51.534;9.934;2023-03-04T10:21:42;100443.28;;;8.20;62.53
70841;BME280;58465;51.534;9.934;2023-03-04T10:24:11;100438.81;;;8.32;62.27
70841;BME280;58465;51.534;9.934;2023-03-04T10:26:38;100440.59;;;8.33;62.32
70841;BME280;58465;51.534;9.934;2023-03-04T10:29:03;100437.88;;;8.39;62.04
70841;BME280;58465;51.534;9.934;2023-03-04T10:31:35;100437.78;;;8.51;61.96
70841;BME280;58465;51.534;9.934;2023-03-04T10:34:04;100432.53;;;8.42;61.73
70841;BME280;58465;51.534;9.934;2023-03-04T10:39:02;100433.44;;;8.41;62.03
70841;BME280;58465;51.534;9.934;2023-03-04T10:41:32;100431.63;;;8.44;62.22
70841;BME280;58465;51.534;9.934;2023-03-04T10:44:11;100432.47;;;8.48;61.62
70841;BME280;58465;51.534;9.934;2023-03-04T10:46:42;100420.75;;;8.72;61.44
70841;BME280;58465;51.534;9.934;2023-03-04T10:49:15;100425.03;;;8.86;61.02
70841;BME280;58465;51.534;9.934;2023-03-04T10:51:52;100429.44;;;8.93;60.45
70841;BME280;58465;51.534;9.934;2023-03-04T10:56:58;100420.59;;;8.87;60.78
70841;BME280;58465;51.534;9.934;2023-03-04T11:01:53;100428.78;;;8.67;61.73
70841;BME280;58465;51.534;9.934;2023-03-04T11:04:22;100428.03;;;8.48;61.86
70841;BME280;58465;51.534;9.934;2023-03-04T11:06:53;100420.94;;;8.50;62.10
70841;BME280;58465;51.534;9.934;2023-03-04T11:09:27;100413.03;;;8.38;62.99
70841;BME280;58465;51.534;9.934;2023-03-04T11:11:53;100418.28;;;8.47;63.54
70841;BME280;58465;51.534;9.934;2023-03-04T11:14:27;100413.91;;;8.45;63.90
70841;BME280;58465;51.534;9.934;2023-03-04T11:17:02;100420.91;;;8.53;63.11
70841;BME280;58465;51.534;9.934;2023-03-04T11:19:30;100419.91;;;8.67;63.11
70841;BME280;58465;51.534;9.934;2023-03-04T11:22:00;100410.13;;;8.67;63.15
70841;BME280;58465;51.534;9.934;2023-03-04T11:24:27;100409.22;;;8.71;63.44
70841;BME280;58465;51.534;9.934;2023-03-04T11:27:04;100410.81;;;8.87;62.98
70841;BME280;58465;51.534;9.934;2023-03-04T11:32:28;100404.69;;;8.81;62.91
70841;BME280;58465;51.534;9.934;2023-03-04T11:38:20;100412.59;;;8.87;63.01
70841;BME280;58465;51.534;9.934;2023-03-04T11:40:59;100409.16;;;8.77;62.72
70841;BME280;58465;51.534;9.934;2023-03-04T11:43:33;100404.66;;;8.84;62.30
70841;BME280;58465;51.534;9.934;2023-03-04T11:46:05;100402.81;;;8.89;62.40
70841;BME280;58465;51.534;9.934;2023-03-04T11:48:51;100402.13;;;8.67;63.28
70841;BME280;58465;51.534;9.934;2023-03-04T11:51:38;100394.44;;;8.35;65.79
70841;BME280;58465;51.534;9.934;2023-03-04T11:56:52;100390.84;;;8.38;64.99
70841;BME280;58465;51.534;9.934;2023-03-04T12:09:54;100370.00;;;8.87;64.67
70841;BME280;58465;51.534;9.934;2023-03-04T12:23:02;100356.50;;;9.73;61.02
70841;BME280;58465;51.534;9.934;2023-03-04T12:25:34;100351.00;;;9.83;60.90
70841;BME280;58465;51.534;9.934;2023-03-04T12:28:25;100356.59;;;9.66;60.79
70841;BME280;58465;51.534;9.934;2023-03-04T12:31:15;100352.50;;;9.40;62.71
70841;BME280;58465;51.534;9.934;2023-03-04T12:34:12;100351.00;;;9.16;63.33
70841;BME280;58465;51.534;9.934;2023-03-04T12:39:50;100343.41;;;8.84;64.67
70841;BME280;58465;51.534;9.934;2023-03-04T12:42:29;100346.38;;;8.50;66.12
70841;BME280;58465;51.534;9.934;2023-03-04T12:45:24;100335.84;;;8.38;67.71
70841;BME280;58465;51.534;9.934;2023-03-04T12:48:18;100325.19;;;8.43;68.32
70841;BME280;58465;51.534;9.934;2023-03-04T12:51:16;100321.22;;;8.82;67.71
70841;BME280;58465;51.534;9.934;2023-03-04T12:58:47;100317.13;;;9.25;64.41
70841;BME280;58465;51.534;9.934;2023-03-04T13:01:23;100318.13;;;9.17;64.47
70841;BME280;58465;51.534;9.934;2023-03-04T13:04:03;100309.47;;;9.01;64.37
70841;BME280;58465;51.534;9.934;2023-03-04T13:06:41;100315.06;;;8.75;64.35
70841;BME280;58465;51.534;9.934;2023-03-04T13:09:16;100317.00;;;8.61;65.48
70841;BME280;58465;51.534;9.934;2023-03-04T13:11:50;100310.69;;;8.70;65.06
70841;BME280;58465;51.534;9.934;2023-03-04T13:16:51;100307.25;;;8.62;64.62
70841;BME280;58465;51.534;9.934;2023-03-04T13:19:47;100317.13;;;8.46;65.10
70841;BME280;58465;51.534;9.934;2023-03-04T13:36:00;100308.25;;;8.47;67.18
70841;BME280;58465;51.534;9.934;2023-03-04T13:51:31;100284.84;;;9.48;61.91
70841;BME280;58465;51.534;9.934;2023-03-04T13:56:26;100276.97;;;9.39;61.49
70841;BME280;58465;51.534;9.934;2023-03-04T14:04:18;100279.78;;;9.30;58.50
70841;BME280;58465;51.534;9.934;2023-03-04T14:06:51;100278.53;;;9.52;58.74
70841;BME280;58465;51.534;9.934;2023-03-04T14:09:20;100271.22;;;9.70;58.24
70841;BME280;58465;51.534;9.934;2023-03-04T14:11:46;100267.97;;;10.04;57.58
70841;BME280;58465;51.534;9.934;2023-03-04T14:14:14;100267.19;;;9.98;57.17
70841;BME280;58465;51.534;9.934;2023-03-04T14:16:53;100266.69;;;10.28;56.30
70841;BME280;58465;51.534;9.934;2023-03-04T14:19:24;100271.00;;;10.37;56.15
70841;BME280;58465;51.534;9.934;2023-03-04T14:21:50;100266.88;;;10.16;56.13
70841;BME280;58465;51.534;9.934;2023-03-04T14:24:18;100261.28;;;10.31;55.47
70841;BME280;58465;51.534;9.934;2023-03-04T14:26:44;100250.16;;;10.05;56.67
70841;BME280;58465;51.534;9.934;2023-03-04T14:29:28;100251.63;;;9.71;56.86
70841;BME280;58465;51.534;9.934;2023-03-04T14:31:55;100253.91;;;9.35;57.75
70841;BME280;58465;51.534;9.934;2023-03-04T14:34:30;100252.28;;;9.26;57.77